sensor_id;sensor_type;location;lat;lon;timestamp;P1;durP1;ratioP1;P2;durP2;ratioP2
75689;SDS011;64303;53.118;9.044;2023-10-08T00:01:37;5.32;;;4.13;;
75689;SDS011;64303;53.118;9.044;2023-10-08T00:04:08;7.30;;;5.25;;
75689;SDS011;64303;53.118;9.044;2023-10-08T00:06:35;6.82;;;4.35;;
75689;SDS011;64303;53.118;9.044;2023-10-08T00:09:03;5.57;;;4.10;;
75689;SDS011;64303;53.118;9.044;2023-10-08T00:11:35;5.80;;;4.40;;
75689;SDS011;64303;53.118;9.044;2023-10-08T00:14:03;7.82;;;5.38;;
75689;SDS011;64303;53.118;9.044;2023-10-08T00:16:33;7.70;;;4.45;;
75689;SDS011;64303;53.118;9.044;2023-10-08T00:19:04;6.32;;;4.10;;
75689;SDS011;64303;53.118;9.044;2023-10-08T00:21:34;7.82;;;4.82;;
75689;SDS011;64303;53.118;9.044;2023-10-08T00:24:01;7.60;;;5.35;;
75689;SDS011;64303;53.118;9.044;2023-10-08T00:26:32;7.60;;;4.25;;
75689;SDS011;64303;53.118;9.044;2023-10-08T00:29:02;5.32;;;4.30;;
75689;SDS011;64303;53.118;9.044;2023-10-08T00:31:31;9.13;;;5.70;;
75689;SDS011;64303;53.118;9.044;2023-10-08T00:34:03;6.82;;;5.40;;
75689;SDS011;64303;53.118;9.044;2023-10-08T00:36:31;7.72;;;4.95;;
75689;SDS011;64303;53.118;9.044;2023-10-08T00:38:59;4.63;;;2.63;;
75689;SDS011;64303;53.118;9.044;2023-10-08T00:41:26;6.70;;;2.90;;
75689;SDS011;64303;53.118;9.044;2023-10-08T00:43:56;6.05;;;4.82;;
75689;SDS011;64303;53.118;9.044;2023-10-08T00:46:26;8.57;;;5.40;;
75689;SDS011;64303;53.118;9.044;2023-10-08T00:48:58;6.63;;;4.80;;
75689;SDS011;64303;53.118;9.044;2023-10-08T00:51:43;5.40;;;3.90;;
75689;SDS011;64303;53.118;9.044;2023-10-08T00:54:11;8.38;;;4.03;;
75689;SDS011;64303;53.118;9.044;2023-10-08T00:56:42;5.53;;;4.25;;
75689;SDS011;64303;53.118;9.044;2023-10-08T00:59:21;5.40;;;2.60;;
75689;SDS011;64303;53.118;9.044;2023-10-08T01:01:50;9.38;;;4.97;;
75689;SDS011;64303;53.118;9.044;2023-10-08T01:04:19;5.88;;;3.85;;
75689;SDS011;64303;53.118;9.044;2023-10-08T01:06:49;5.97;;;4.00;;
75689;SDS011;64303;53.118;9.044;2023-10-08T01:09:20;4.97;;;4.07;;
75689;SDS011;64303;53.118;9.044;2023-10-08T01:12:06;5.85;;;4.30;;
75689;SDS011;64303;53.118;9.044;2023-10-08T01:14:34;6.75;;;3.63;;
75689;SDS011;64303;53.118;9.044;2023-10-08T01:17:02;7.60;;;5.78;;
75689;SDS011;64303;53.118;9.044;2023-10-08T01:19:32;5.93;;;5.20;;
75689;SDS011;64303;53.118;9.044;2023-10-08T01:22:05;6.57;;;5.38;;
75689;SDS011;64303;53.118;9.044;2023-10-08T01:24:33;6.80;;;5.35;;
75689;SDS011;64303;53.118;9.044;2023-10-08T01:27:01;4.25;;;3.80;;
75689;SDS011;64303;53.118;9.044;2023-10-08T01:29:30;6.20;;;4.63;;
75689;SDS011;64303;53.118;9.044;2023-10-08T01:31:57;6.45;;;4.60;;
75689;SDS011;64303;53.118;9.044;2023-10-08T01:34:24;4.75;;;4.18;;
75689;SDS011;64303;53.118;9.044;2023-10-08T01:36:56;6.63;;;3.83;;
75689;SDS011;64303;53.118;9.044;2023-10-08T01:39:28;4.78;;;2.95;;
75689;SDS011;64303;53.118;9.044;2023-10-08T01:41:57;9.93;;;4.10;;
75689;SDS011;64303;53.118;9.044;2023-10-08T01:44:24;5.43;;;3.08;;
75689;SDS011;64303;53.118;9.044;2023-10-08T01:46:51;4.22;;;3.58;;
75689;SDS011;64303;53.118;9.044;2023-10-08T01:49:18;6.40;;;3.72;;
75689;SDS011;64303;53.118;9.044;2023-10-08T01:51:48;6.53;;;4.35;;
75689;SDS011;64303;53.118;9.044;2023-10-08T01:54:16;3.72;;;2.72;;
75689;SDS011;64303;53.118;9.044;2023-10-08T01:56:47;5.38;;;4.07;;
75689;SDS011;64303;53.118;9.044;2023-10-08T01:59:15;6.10;;;4.95;;
75689;SDS011;64303;53.118;9.044;2023-10-08T02:01:42;7.72;;;3.67;;
75689;SDS011;64303;53.118;9.044;2023-10-08T02:04:10;7.47;;;4.53;;
75689;SDS011;64303;53.118;9.044;2023-10-08T02:06:37;5.50;;;4.10;;
75689;SDS011;64303;53.118;9.044;2023-10-08T02:09:06;9.35;;;4.75;;
75689;SDS011;64303;53.118;9.044;2023-10-08T02:11:43;8.00;;;4.50;;
75689;SDS011;64303;53.118;9.044;2023-10-08T02:14:12;6.03;;;3.65;;
75689;SDS011;64303;53.118;9.044;2023-10-08T02:16:40;7.15;;;3.55;;
75689;SDS011;64303;53.118;9.044;2023-10-08T02:19:07;5.20;;;3.80;;
75689;SDS011;64303;53.118;9.044;2023-10-08T02:24:03;4.65;;;2.50;;
75689;SDS011;64303;53.118;9.044;2023-10-08T02:26:30;6.53;;;3.17;;
75689;SDS011;64303;53.118;9.044;2023-10-08T02:28:58;10.27;;;4.07;;
75689;SDS011;64303;53.118;9.044;2023-10-08T02:31:26;5.05;;;3.55;;
75689;SDS011;64303;53.118;9.044;2023-10-08T02:33:53;6.28;;;4.15;;
75689;SDS011;64303;53.118;9.044;2023-10-08T02:36:20;8.60;;;4.20;;
75689;SDS011;64303;53.118;9.044;2023-10-08T02:38:47;6.25;;;3.83;;
75689;SDS011;64303;53.118;9.044;2023-10-08T02:41:15;5.80;;;3.08;;
75689;SDS011;64303;53.118;9.044;2023-10-08T02:43:42;8.95;;;4.45;;
75689;SDS011;64303;53.118;9.044;2023-10-08T02:46:10;5.25;;;4.30;;
75689;SDS011;64303;53.118;9.044;2023-10-08T02:48:41;8.55;;;3.22;;
75689;SDS011;64303;53.118;9.044;2023-10-08T02:51:08;5.93;;;3.53;;
75689;SDS011;64303;53.118;9.044;2023-10-08T02:53:39;6.32;;;4.88;;
75689;SDS011;64303;53.118;9.044;2023-10-08T02:56:09;6.00;;;3.13;;
75689;SDS011;64303;53.118;9.044;2023-10-08T02:58:38;5.80;;;3.58;;
75689;SDS011;64303;53.118;9.044;2023-10-08T03:01:07;7.03;;;4.10;;
75689;SDS011;64303;53.118;9.044;2023-10-08T03:03:38;7.30;;;4.43;;
75689;SDS011;64303;53.118;9.044;2023-10-08T03:06:07;8.45;;;4.93;;
75689;SDS011;64303;53.118;9.044;2023-10-08T03:08:37;8.95;;;4.18;;
75689;SDS011;64303;53.118;9.044;2023-10-08T03:11:08;7.63;;;4.90;;
75689;SDS011;64303;53.118;9.044;2023-10-08T03:13:43;8.63;;;3.72;;
75689;SDS011;64303;53.118;9.044;2023-10-08T03:16:13;5.18;;;4.13;;
75689;SDS011;64303;53.118;9.044;2023-10-08T03:18:40;6.18;;;4.32;;
75689;SDS011;64303;53.118;9.044;2023-10-08T03:21:09;6.25;;;4.55;;
75689;SDS011;64303;53.118;9.044;2023-10-08T03:23:45;8.57;;;5.43;;
75689;SDS011;64303;53.118;9.044;2023-10-08T03:26:13;6.45;;;4.63;;
75689;SDS011;64303;53.118;9.044;2023-10-08T03:28:58;6.20;;;4.13;;
75689;SDS011;64303;53.118;9.044;2023-10-08T03:31:30;8.25;;;4.70;;
75689;SDS011;64303;53.118;9.044;2023-10-08T03:36:39;8.23;;;6.32;;
75689;SDS011;64303;53.118;9.044;2023-10-08T03:39:09;8.48;;;4.90;;
75689;SDS011;64303;53.118;9.044;2023-10-08T03:41:39;6.03;;;5.10;;
75689;SDS011;64303;53.118;9.044;2023-10-08T03:44:06;6.40;;;4.07;;
75689;SDS011;64303;53.118;9.044;2023-10-08T03:46:38;7.10;;;5.15;;
75689;SDS011;64303;53.118;9.044;2023-10-08T03:49:08;8.35;;;4.95;;
75689;SDS011;64303;53.118;9.044;2023-10-08T03:51:42;6.40;;;5.60;;
75689;SDS011;64303;53.118;9.044;2023-10-08T03:54:09;11.02;;;6.35;;
75689;SDS011;64303;53.118;9.044;2023-10-08T03:56:46;6.82;;;5.10;;
75689;SDS011;64303;53.118;9.044;2023-10-08T03:59:13;9.02;;;4.25;;
75689;SDS011;64303;53.118;9.044;2023-10-08T04:01:46;6.85;;;4.75;;
75689;SDS011;64303;53.118;9.044;2023-10-08T04:04:14;6.13;;;3.80;;
75689;SDS011;64303;53.118;9.044;2023-10-08T04:06:42;6.63;;;5.20;;
75689;SDS011;64303;53.118;9.044;2023-10-08T04:09:15;6.68;;;4.90;;
75689;SDS011;64303;53.118;9.044;2023-10-08T04:11:50;9.82;;;5.40;;
75689;SDS011;64303;53.118;9.044;2023-10-08T04:14:17;10.20;;;4.30;;
75689;SDS011;64303;53.118;9.044;2023-10-08T04:16:44;7.80;;;4.65;;
75689;SDS011;64303;53.118;9.044;2023-10-08T04:19:12;8.10;;;4.93;;
75689;SDS011;64303;53.118;9.044;2023-10-08T04:21:44;6.70;;;5.32;;
75689;SDS011;64303;53.118;9.044;2023-10-08T04:24:20;7.93;;;7.00;;
75689;SDS011;64303;53.118;9.044;2023-10-08T04:26:53;8.35;;;4.80;;
75689;SDS011;64303;53.118;9.044;2023-10-08T04:29:22;12.90;;;4.55;;
75689;SDS011;64303;53.118;9.044;2023-10-08T04:31:50;7.60;;;3.40;;
75689;SDS011;64303;53.118;9.044;2023-10-08T04:34:27;7.85;;;5.50;;
75689;SDS011;64303;53.118;9.044;2023-10-08T04:36:56;8.27;;;3.75;;
75689;SDS011;64303;53.118;9.044;2023-10-08T04:39:26;9.52;;;4.80;;
75689;SDS011;64303;53.118;9.044;2023-10-08T04:41:57;7.65;;;4.20;;
75689;SDS011;64303;53.118;9.044;2023-10-08T04:44:31;11.00;;;5.38;;
75689;SDS011;64303;53.118;9.044;2023-10-08T04:46:58;9.25;;;5.25;;
75689;SDS011;64303;53.118;9.044;2023-10-08T04:49:30;7.55;;;4.15;;
75689;SDS011;64303;53.118;9.044;2023-10-08T04:52:00;6.63;;;4.60;;
75689;SDS011;64303;53.118;9.044;2023-10-08T04:54:35;10.45;;;4.70;;
75689;SDS011;64303;53.118;9.044;2023-10-08T04:57:06;11.38;;;5.85;;
75689;SDS011;64303;53.118;9.044;2023-10-08T04:59:40;13.40;;;6.30;;
75689;SDS011;64303;53.118;9.044;2023-10-08T05:02:07;10.02;;;4.82;;
75689;SDS011;64303;53.118;9.044;2023-10-08T05:04:54;12.95;;;5.30;;
75689;SDS011;64303;53.118;9.044;2023-10-08T05:10:35;10.82;;;6.57;;
75689;SDS011;64303;53.118;9.044;2023-10-08T05:13:19;11.13;;;6.72;;
75689;SDS011;64303;53.118;9.044;2023-10-08T05:15:56;7.95;;;4.60;;
75689;SDS011;64303;53.118;9.044;2023-10-08T05:18:31;10.73;;;5.00;;
75689;SDS011;64303;53.118;9.044;2023-10-08T05:21:12;6.15;;;4.95;;
75689;SDS011;64303;53.118;9.044;2023-10-08T05:23:52;9.63;;;5.82;;
75689;SDS011;64303;53.118;9.044;2023-10-08T05:26:35;7.65;;;3.72;;
75689;SDS011;64303;53.118;9.044;2023-10-08T05:29:09;9.68;;;6.00;;
75689;SDS011;64303;53.118;9.044;2023-10-08T05:31:54;6.32;;;3.60;;
75689;SDS011;64303;53.118;9.044;2023-10-08T05:34:35;8.63;;;5.10;;
75689;SDS011;64303;53.118;9.044;2023-10-08T05:37:09;8.18;;;5.78;;
75689;SDS011;64303;53.118;9.044;2023-10-08T05:39:58;8.93;;;5.38;;
75689;SDS011;64303;53.118;9.044;2023-10-08T05:42:38;11.38;;;5.40;;
75689;SDS011;64303;53.118;9.044;2023-10-08T05:45:11;9.93;;;4.70;;
75689;SDS011;64303;53.118;9.044;2023-10-08T05:47:54;11.15;;;6.10;;
75689;SDS011;64303;53.118;9.044;2023-10-08T05:50:38;8.57;;;4.85;;
75689;SDS011;64303;53.118;9.044;2023-10-08T05:53:20;8.02;;;4.97;;
75689;SDS011;64303;53.118;9.044;2023-10-08T05:56:09;10.00;;;6.20;;
75689;SDS011;64303;53.118;9.044;2023-10-08T05:58:54;10.15;;;5.53;;
75689;SDS011;64303;53.118;9.044;2023-10-08T06:01:40;8.90;;;6.25;;
75689;SDS011;64303;53.118;9.044;2023-10-08T06:04:07;10.23;;;5.45;;
75689;SDS011;64303;53.118;9.044;2023-10-08T06:07:07;13.02;;;5.70;;
75689;SDS011;64303;53.118;9.044;2023-10-08T06:09:42;9.90;;;4.88;;
75689;SDS011;64303;53.118;9.044;2023-10-08T06:12:17;9.30;;;6.00;;
75689;SDS011;64303;53.118;9.044;2023-10-08T06:14:55;9.27;;;4.85;;
75689;SDS011;64303;53.118;9.044;2023-10-08T06:17:34;9.88;;;4.88;;
75689;SDS011;64303;53.118;9.044;2023-10-08T06:20:24;8.02;;;5.40;;
75689;SDS011;64303;53.118;9.044;2023-10-08T06:22:52;8.07;;;6.25;;
75689;SDS011;64303;53.118;9.044;2023-10-08T06:25:25;10.00;;;6.40;;
75689;SDS011;64303;53.118;9.044;2023-10-08T06:27:54;10.68;;;6.70;;
75689;SDS011;64303;53.118;9.044;2023-10-08T06:30:22;10.75;;;7.95;;
75689;SDS011;64303;53.118;9.044;2023-10-08T06:32:50;11.95;;;5.70;;
75689;SDS011;64303;53.118;9.044;2023-10-08T06:35:19;9.38;;;5.15;;
75689;SDS011;64303;53.118;9.044;2023-10-08T06:37:50;11.40;;;5.65;;
75689;SDS011;64303;53.118;9.044;2023-10-08T06:40:20;8.85;;;5.57;;
75689;SDS011;64303;53.118;9.044;2023-10-08T06:43:05;12.77;;;4.72;;
75689;SDS011;64303;53.118;9.044;2023-10-08T06:45:40;12.15;;;5.47;;
75689;SDS011;64303;53.118;9.044;2023-10-08T06:48:07;10.07;;;5.03;;
75689;SDS011;64303;53.118;9.044;2023-10-08T06:50:35;8.38;;;5.30;;
75689;SDS011;64303;53.118;9.044;2023-10-08T06:53:02;8.48;;;6.13;;
75689;SDS011;64303;53.118;9.044;2023-10-08T06:55:33;10.32;;;6.00;;
75689;SDS011;64303;53.118;9.044;2023-10-08T06:58:00;10.70;;;4.07;;
75689;SDS011;64303;53.118;9.044;2023-10-08T07:00:32;9.65;;;5.57;;
75689;SDS011;64303;53.118;9.044;2023-10-08T07:03:04;9.30;;;5.10;;
75689;SDS011;64303;53.118;9.044;2023-10-08T07:05:36;13.77;;;4.35;;
75689;SDS011;64303;53.118;9.044;2023-10-08T07:08:08;8.63;;;4.57;;
75689;SDS011;64303;53.118;9.044;2023-10-08T07:10:39;12.38;;;5.40;;
75689;SDS011;64303;53.118;9.044;2023-10-08T07:13:07;6.00;;;4.75;;
75689;SDS011;64303;53.118;9.044;2023-10-08T07:15:35;8.23;;;4.65;;
75689;SDS011;64303;53.118;9.044;2023-10-08T07:18:05;7.13;;;4.22;;
75689;SDS011;64303;53.118;9.044;2023-10-08T07:20:39;5.55;;;4.57;;
75689;SDS011;64303;53.118;9.044;2023-10-08T07:23:10;6.00;;;4.03;;
75689;SDS011;64303;53.118;9.044;2023-10-08T07:25:54;6.35;;;4.47;;
75689;SDS011;64303;53.118;9.044;2023-10-08T07:28:27;6.30;;;3.72;;
75689;SDS011;64303;53.118;9.044;2023-10-08T07:30:56;5.95;;;3.38;;
75689;SDS011;64303;53.118;9.044;2023-10-08T07:33:23;6.93;;;4.57;;
75689;SDS011;64303;53.118;9.044;2023-10-08T07:35:54;5.82;;;2.97;;
75689;SDS011;64303;53.118;9.044;2023-10-08T07:38:29;6.93;;;5.10;;
75689;SDS011;64303;53.118;9.044;2023-10-08T07:40:56;9.02;;;4.47;;
75689;SDS011;64303;53.118;9.044;2023-10-08T07:43:22;6.82;;;2.67;;
75689;SDS011;64303;53.118;9.044;2023-10-08T07:45:50;5.13;;;3.53;;
75689;SDS011;64303;53.118;9.044;2023-10-08T07:48:21;4.68;;;4.25;;
75689;SDS011;64303;53.118;9.044;2023-10-08T07:50:55;5.85;;;3.25;;
75689;SDS011;64303;53.118;9.044;2023-10-08T07:53:22;6.10;;;3.15;;
75689;SDS011;64303;53.118;9.044;2023-10-08T07:58:17;4.95;;;2.90;;
75689;SDS011;64303;53.118;9.044;2023-10-08T08:00:44;6.82;;;3.35;;
75689;SDS011;64303;53.118;9.044;2023-10-08T08:03:22;10.48;;;3.95;;
75689;SDS011;64303;53.118;9.044;2023-10-08T08:05:50;5.20;;;3.13;;
75689;SDS011;64303;53.118;9.044;2023-10-08T08:08:19;6.60;;;3.28;;
75689;SDS011;64303;53.118;9.044;2023-10-08T08:10:49;7.90;;;4.43;;
75689;SDS011;64303;53.118;9.044;2023-10-08T08:13:23;6.07;;;3.72;;
75689;SDS011;64303;53.118;9.044;2023-10-08T08:15:54;4.57;;;4.15;;
75689;SDS011;64303;53.118;9.044;2023-10-08T08:18:25;5.65;;;2.95;;
75689;SDS011;64303;53.118;9.044;2023-10-08T08:20:59;4.10;;;3.55;;
75689;SDS011;64303;53.118;9.044;2023-10-08T08:23:28;3.53;;;2.42;;
75689;SDS011;64303;53.118;9.044;2023-10-08T08:25:58;4.35;;;2.95;;
75689;SDS011;64303;53.118;9.044;2023-10-08T08:28:38;4.65;;;2.72;;
75689;SDS011;64303;53.118;9.044;2023-10-08T08:31:06;8.15;;;2.55;;
75689;SDS011;64303;53.118;9.044;2023-10-08T08:33:40;7.43;;;2.50;;
75689;SDS011;64303;53.118;9.044;2023-10-08T08:36:22;6.65;;;3.30;;
75689;SDS011;64303;53.118;9.044;2023-10-08T08:38:49;4.15;;;2.60;;
75689;SDS011;64303;53.118;9.044;2023-10-08T08:41:16;4.90;;;3.85;;
75689;SDS011;64303;53.118;9.044;2023-10-08T08:43:44;6.28;;;2.63;;
75689;SDS011;64303;53.118;9.044;2023-10-08T08:46:14;4.95;;;3.25;;
75689;SDS011;64303;53.118;9.044;2023-10-08T08:48:43;6.47;;;3.15;;
75689;SDS011;64303;53.118;9.044;2023-10-08T08:51:11;5.13;;;2.45;;
75689;SDS011;64303;53.118;9.044;2023-10-08T08:53:38;4.13;;;3.10;;
75689;SDS011;64303;53.118;9.044;2023-10-08T08:56:06;3.97;;;2.50;;
75689;SDS011;64303;53.118;9.044;2023-10-08T08:58:35;5.47;;;2.83;;
75689;SDS011;64303;53.118;9.044;2023-10-08T09:01:03;6.07;;;3.08;;
75689;SDS011;64303;53.118;9.044;2023-10-08T09:03:33;7.57;;;4.03;;
75689;SDS011;64303;53.118;9.044;2023-10-08T09:06:01;5.93;;;3.17;;
75689;SDS011;64303;53.118;9.044;2023-10-08T09:08:32;5.70;;;2.28;;
75689;SDS011;64303;53.118;9.044;2023-10-08T09:11:00;4.97;;;3.60;;
75689;SDS011;64303;53.118;9.044;2023-10-08T09:13:27;5.45;;;3.95;;
75689;SDS011;64303;53.118;9.044;2023-10-08T09:15:57;4.78;;;1.75;;
75689;SDS011;64303;53.118;9.044;2023-10-08T09:18:30;8.52;;;2.17;;
75689;SDS011;64303;53.118;9.044;2023-10-08T09:21:07;4.63;;;2.20;;
75689;SDS011;64303;53.118;9.044;2023-10-08T09:23:38;6.03;;;2.25;;
75689;SDS011;64303;53.118;9.044;2023-10-08T09:26:08;3.90;;;2.13;;
75689;SDS011;64303;53.118;9.044;2023-10-08T09:28:36;4.68;;;2.25;;
75689;SDS011;64303;53.118;9.044;2023-10-08T09:31:04;2.47;;;2.25;;
75689;SDS011;64303;53.118;9.044;2023-10-08T09:33:32;5.43;;;4.07;;
75689;SDS011;64303;53.118;9.044;2023-10-08T09:35:59;4.75;;;1.65;;
75689;SDS011;64303;53.118;9.044;2023-10-08T09:38:29;3.60;;;2.33;;
75689;SDS011;64303;53.118;9.044;2023-10-08T09:40:57;3.58;;;2.55;;
75689;SDS011;64303;53.118;9.044;2023-10-08T09:43:26;4.40;;;1.88;;
75689;SDS011;64303;53.118;9.044;2023-10-08T09:45:54;2.53;;;1.60;;
75689;SDS011;64303;53.118;9.044;2023-10-08T09:48:25;16.88;;;3.55;;
75689;SDS011;64303;53.118;9.044;2023-10-08T09:50:53;4.82;;;2.03;;
75689;SDS011;64303;53.118;9.044;2023-10-08T09:53:22;4.90;;;3.10;;
75689;SDS011;64303;53.118;9.044;2023-10-08T09:56:02;3.92;;;2.35;;
75689;SDS011;64303;53.118;9.044;2023-10-08T09:58:34;5.40;;;2.95;;
75689;SDS011;64303;53.118;9.044;2023-10-08T10:01:01;4.22;;;2.65;;
75689;SDS011;64303;53.118;9.044;2023-10-08T10:03:29;2.97;;;1.60;;
75689;SDS011;64303;53.118;9.044;2023-10-08T10:05:56;8.07;;;3.08;;
75689;SDS011;64303;53.118;9.044;2023-10-08T10:08:25;3.42;;;2.72;;
75689;SDS011;64303;53.118;9.044;2023-10-08T10:10:57;4.50;;;1.58;;
75689;SDS011;64303;53.118;9.044;2023-10-08T10:13:28;3.88;;;2.45;;
75689;SDS011;64303;53.118;9.044;2023-10-08T10:15:55;2.80;;;1.98;;
75689;SDS011;64303;53.118;9.044;2023-10-08T10:18:27;7.03;;;2.05;;
75689;SDS011;64303;53.118;9.044;2023-10-08T10:20:57;3.63;;;2.42;;
75689;SDS011;64303;53.118;9.044;2023-10-08T10:23:35;3.08;;;2.10;;
75689;SDS011;64303;53.118;9.044;2023-10-08T10:26:05;5.60;;;2.45;;
75689;SDS011;64303;53.118;9.044;2023-10-08T10:31:52;7.97;;;1.75;;
75689;SDS011;64303;53.118;9.044;2023-10-08T10:34:22;7.38;;;3.97;;
75689;SDS011;64303;53.118;9.044;2023-10-08T10:36:53;7.05;;;1.30;;
75689;SDS011;64303;53.118;9.044;2023-10-08T10:39:28;5.68;;;2.05;;
75689;SDS011;64303;53.118;9.044;2023-10-08T10:41:57;3.60;;;1.70;;
75689;SDS011;64303;53.118;9.044;2023-10-08T10:44:32;5.13;;;3.17;;
75689;SDS011;64303;53.118;9.044;2023-10-08T10:47:02;3.72;;;2.65;;
75689;SDS011;64303;53.118;9.044;2023-10-08T10:49:47;5.13;;;2.40;;
75689;SDS011;64303;53.118;9.044;2023-10-08T10:52:19;3.83;;;1.85;;
75689;SDS011;64303;53.118;9.044;2023-10-08T10:54:58;3.53;;;2.30;;
75689;SDS011;64303;53.118;9.044;2023-10-08T10:57:31;3.33;;;1.67;;
75689;SDS011;64303;53.118;9.044;2023-10-08T11:00:06;3.15;;;2.75;;
75689;SDS011;64303;53.118;9.044;2023-10-08T11:03:05;3.90;;;2.13;;
75689;SDS011;64303;53.118;9.044;2023-10-08T11:05:41;6.78;;;2.08;;
75689;SDS011;64303;53.118;9.044;2023-10-08T11:08:13;7.95;;;2.22;;
75689;SDS011;64303;53.118;9.044;2023-10-08T11:10:43;4.32;;;3.72;;
75689;SDS011;64303;53.118;9.044;2023-10-08T11:13:15;4.68;;;2.60;;
75689;SDS011;64303;53.118;9.044;2023-10-08T11:15:43;5.22;;;2.55;;
75689;SDS011;64303;53.118;9.044;2023-10-08T11:18:15;4.07;;;2.20;;
75689;SDS011;64303;53.118;9.044;2023-10-08T11:20:42;2.85;;;1.85;;
75689;SDS011;64303;53.118;9.044;2023-10-08T11:23:10;4.32;;;2.33;;
75689;SDS011;64303;53.118;9.044;2023-10-08T11:25:54;3.22;;;2.13;;
75689;SDS011;64303;53.118;9.044;2023-10-08T11:28:25;3.47;;;1.58;;
75689;SDS011;64303;53.118;9.044;2023-10-08T11:30:54;3.42;;;1.25;;
75689;SDS011;64303;53.118;9.044;2023-10-08T11:35:57;5.32;;;2.33;;
75689;SDS011;64303;53.118;9.044;2023-10-08T11:38:25;2.15;;;1.60;;
75689;SDS011;64303;53.118;9.044;2023-10-08T11:40:53;5.53;;;2.53;;
75689;SDS011;64303;53.118;9.044;2023-10-08T11:43:22;4.80;;;2.08;;
75689;SDS011;64303;53.118;9.044;2023-10-08T11:48:18;4.05;;;2.72;;
75689;SDS011;64303;53.118;9.044;2023-10-08T11:50:51;2.95;;;1.80;;
75689;SDS011;64303;53.118;9.044;2023-10-08T11:53:18;4.13;;;2.40;;
75689;SDS011;64303;53.118;9.044;2023-10-08T11:58:13;3.60;;;1.88;;
75689;SDS011;64303;53.118;9.044;2023-10-08T12:00:43;3.72;;;2.15;;
75689;SDS011;64303;53.118;9.044;2023-10-08T12:03:11;4.28;;;2.10;;
75689;SDS011;64303;53.118;9.044;2023-10-08T12:05:39;4.10;;;3.50;;
75689;SDS011;64303;53.118;9.044;2023-10-08T12:08:12;4.88;;;2.30;;
75689;SDS011;64303;53.118;9.044;2023-10-08T12:10:41;4.53;;;2.13;;
75689;SDS011;64303;53.118;9.044;2023-10-08T12:13:11;2.90;;;2.55;;
75689;SDS011;64303;53.118;9.044;2023-10-08T12:15:38;4.90;;;2.45;;
75689;SDS011;64303;53.118;9.044;2023-10-08T12:18:06;4.13;;;2.38;;
75689;SDS011;64303;53.118;9.044;2023-10-08T12:20:40;3.67;;;3.08;;
75689;SDS011;64303;53.118;9.044;2023-10-08T12:23:09;1.90;;;1.27;;
75689;SDS011;64303;53.118;9.044;2023-10-08T12:25:36;2.78;;;2.20;;
75689;SDS011;64303;53.118;9.044;2023-10-08T12:28:03;5.38;;;3.50;;
75689;SDS011;64303;53.118;9.044;2023-10-08T12:30:30;3.72;;;2.50;;
75689;SDS011;64303;53.118;9.044;2023-10-08T12:32:57;3.45;;;2.53;;
75689;SDS011;64303;53.118;9.044;2023-10-08T12:35:25;4.00;;;2.03;;
75689;SDS011;64303;53.118;9.044;2023-10-08T12:37:56;4.95;;;2.80;;
75689;SDS011;64303;53.118;9.044;2023-10-08T12:40:23;5.13;;;2.72;;
75689;SDS011;64303;53.118;9.044;2023-10-08T12:42:50;6.72;;;2.08;;
75689;SDS011;64303;53.118;9.044;2023-10-08T12:45:16;4.82;;;3.25;;
75689;SDS011;64303;53.118;9.044;2023-10-08T12:47:46;3.72;;;2.72;;
75689;SDS011;64303;53.118;9.044;2023-10-08T12:50:15;4.32;;;2.05;;
75689;SDS011;64303;53.118;9.044;2023-10-08T12:52:42;5.00;;;2.70;;
75689;SDS011;64303;53.118;9.044;2023-10-08T12:55:19;4.70;;;2.67;;
75689;SDS011;64303;53.118;9.044;2023-10-08T12:57:50;3.30;;;2.85;;
75689;SDS011;64303;53.118;9.044;2023-10-08T13:00:21;6.50;;;2.60;;
75689;SDS011;64303;53.118;9.044;2023-10-08T13:02:49;5.22;;;2.88;;
75689;SDS011;64303;53.118;9.044;2023-10-08T13:05:19;5.68;;;2.85;;
75689;SDS011;64303;53.118;9.044;2023-10-08T13:07:53;4.40;;;1.55;;
75689;SDS011;64303;53.118;9.044;2023-10-08T13:10:22;3.30;;;2.15;;
75689;SDS011;64303;53.118;9.044;2023-10-08T13:12:49;7.45;;;3.17;;
75689;SDS011;64303;53.118;9.044;2023-10-08T13:15:16;5.53;;;2.03;;
75689;SDS011;64303;53.118;9.044;2023-10-08T13:17:43;3.45;;;2.00;;
75689;SDS011;64303;53.118;9.044;2023-10-08T13:20:11;6.32;;;2.80;;
75689;SDS011;64303;53.118;9.044;2023-10-08T13:22:38;6.47;;;1.75;;
75689;SDS011;64303;53.118;9.044;2023-10-08T13:25:05;5.97;;;3.10;;
75689;SDS011;64303;53.118;9.044;2023-10-08T13:27:34;3.60;;;1.92;;
75689;SDS011;64303;53.118;9.044;2023-10-08T13:30:05;4.13;;;3.08;;
75689;SDS011;64303;53.118;9.044;2023-10-08T13:32:34;5.47;;;2.30;;
75689;SDS011;64303;53.118;9.044;2023-10-08T13:37:29;8.38;;;2.35;;
75689;SDS011;64303;53.118;9.044;2023-10-08T13:39:56;4.88;;;2.90;;
75689;SDS011;64303;53.118;9.044;2023-10-08T13:42:22;4.10;;;2.45;;
75689;SDS011;64303;53.118;9.044;2023-10-08T13:44:50;7.90;;;3.22;;
75689;SDS011;64303;53.118;9.044;2023-10-08T13:47:17;4.82;;;2.05;;
75689;SDS011;64303;53.118;9.044;2023-10-08T13:49:45;4.35;;;2.40;;
75689;SDS011;64303;53.118;9.044;2023-10-08T13:52:13;3.38;;;2.80;;
75689;SDS011;64303;53.118;9.044;2023-10-08T13:54:39;4.90;;;2.28;;
75689;SDS011;64303;53.118;9.044;2023-10-08T13:57:12;6.43;;;2.55;;
75689;SDS011;64303;53.118;9.044;2023-10-08T13:59:40;5.22;;;3.03;;
75689;SDS011;64303;53.118;9.044;2023-10-08T14:02:09;5.63;;;3.92;;
75689;SDS011;64303;53.118;9.044;2023-10-08T14:04:39;4.25;;;3.35;;
75689;SDS011;64303;53.118;9.044;2023-10-08T14:07:08;4.50;;;2.00;;
75689;SDS011;64303;53.118;9.044;2023-10-08T14:09:37;6.63;;;2.47;;
75689;SDS011;64303;53.118;9.044;2023-10-08T14:12:07;3.42;;;2.35;;
75689;SDS011;64303;53.118;9.044;2023-10-08T14:14:35;4.55;;;2.50;;
75689;SDS011;64303;53.118;9.044;2023-10-08T14:17:06;4.10;;;1.63;;
75689;SDS011;64303;53.118;9.044;2023-10-08T14:19:40;3.92;;;1.67;;
75689;SDS011;64303;53.118;9.044;2023-10-08T14:22:11;4.43;;;1.40;;
75689;SDS011;64303;53.118;9.044;2023-10-08T14:24:40;3.85;;;2.90;;
75689;SDS011;64303;53.118;9.044;2023-10-08T14:27:07;4.18;;;2.03;;
75689;SDS011;64303;53.118;9.044;2023-10-08T14:29:36;3.63;;;2.30;;
75689;SDS011;64303;53.118;9.044;2023-10-08T14:32:06;4.85;;;1.55;;
75689;SDS011;64303;53.118;9.044;2023-10-08T14:34:36;5.50;;;3.17;;
75689;SDS011;64303;53.118;9.044;2023-10-08T14:37:21;4.63;;;2.97;;
75689;SDS011;64303;53.118;9.044;2023-10-08T14:40:06;5.18;;;2.70;;
75689;SDS011;64303;53.118;9.044;2023-10-08T14:42:51;3.70;;;1.63;;
75689;SDS011;64303;53.118;9.044;2023-10-08T14:45:21;3.25;;;1.40;;
75689;SDS011;64303;53.118;9.044;2023-10-08T14:47:52;4.28;;;1.95;;
75689;SDS011;64303;53.118;9.044;2023-10-08T14:50:21;6.20;;;1.73;;
75689;SDS011;64303;53.118;9.044;2023-10-08T14:52:48;3.88;;;2.03;;
75689;SDS011;64303;53.118;9.044;2023-10-08T14:55:15;5.50;;;2.70;;
75689;SDS011;64303;53.118;9.044;2023-10-08T14:57:42;5.45;;;2.20;;
75689;SDS011;64303;53.118;9.044;2023-10-08T15:00:09;4.82;;;1.48;;
75689;SDS011;64303;53.118;9.044;2023-10-08T15:02:37;4.65;;;3.22;;
75689;SDS011;64303;53.118;9.044;2023-10-08T15:05:04;4.75;;;2.78;;
75689;SDS011;64303;53.118;9.044;2023-10-08T15:07:33;2.55;;;1.77;;
75689;SDS011;64303;53.118;9.044;2023-10-08T15:10:01;3.85;;;2.03;;
75689;SDS011;64303;53.118;9.044;2023-10-08T15:12:28;8.30;;;3.25;;
75689;SDS011;64303;53.118;9.044;2023-10-08T15:14:59;2.78;;;2.45;;
75689;SDS011;64303;53.118;9.044;2023-10-08T15:17:38;5.35;;;3.22;;
75689;SDS011;64303;53.118;9.044;2023-10-08T15:20:06;3.80;;;2.58;;
75689;SDS011;64303;53.118;9.044;2023-10-08T15:22:35;2.95;;;1.73;;
75689;SDS011;64303;53.118;9.044;2023-10-08T15:25:01;4.78;;;2.88;;
75689;SDS011;64303;53.118;9.044;2023-10-08T15:27:28;6.95;;;3.78;;
75689;SDS011;64303;53.118;9.044;2023-10-08T15:29:57;6.45;;;3.25;;
75689;SDS011;64303;53.118;9.044;2023-10-08T15:32:24;5.43;;;2.08;;